Terminal Aerodrome Forecast
Issued by NWS

Home | Current Version | Previous Version | Text Only | Print | Product List | Glossary On
Versions: 1 2 3 4 5 6 7 8 9 10 11 12 13 14 15
000
FTUS46 KSGX 011326 AAA
TAFONT
TAF AMD
KONT 011326Z 0113/0218 VRB04KT 4SM BR BKN010
      TEMPO 0113/0115 3SM BR BKN005
     FM011630 VRB05KT 5SM HZ FEW010
     FM012000 26012G18KT P6SM SCT250
     FM020500 VRB05KT P6SM FEW250
     FM021100 VRB03KT 5SM BR BKN008
     FM021600 VRB04KT 6SM HZ SCT010=

USA.gov is the U.S. government's official web portal to all federal, state and local government web resources and services.